Terminal Aerodrome Forecast
Issued by NWS

Home | Current Version | Previous Version | Text Only | Print | Product List | Glossary On
Versions: 1 2 3 4 5 6 7 8 9 10 11 12 13 14 15 16 17 18 19 20 21 22 23 24
000
FTUS42 KMFL 301125
TAFTMB
TAF
KTMB 301125Z 3012/3112 VRB03KT P6SM FEW030 SCT050
     FM301400 14008KT P6SM SCT035
     FM301700 15013G18KT P6SM SCT040
     FM310000 16007KT P6SM FEW030 SCT050=

USA.gov is the U.S. government's official web portal to all federal, state and local government web resources and services.